sensor_id;sensor_type;location;lat;lon;timestamp;temperature;humidity
44863;DHT22;30597;49.628;10.850;2023-05-28T00:00:27;23.80;54.90
44863;DHT22;30597;49.628;10.850;2023-05-28T00:02:54;23.80;55.10
44863;DHT22;30597;49.628;10.850;2023-05-28T00:05:22;23.80;55.30
44863;DHT22;30597;49.628;10.850;2023-05-28T00:07:50;23.80;55.50
44863;DHT22;30597;49.628;10.850;2023-05-28T00:10:16;23.70;55.60
44863;DHT22;30597;49.628;10.850;2023-05-28T00:12:41;23.80;56.30
44863;DHT22;30597;49.628;10.850;2023-05-28T00:15:07;23.80;56.30
44863;DHT22;30597;49.628;10.850;2023-05-28T00:17:33;23.80;56.40
44863;DHT22;30597;49.628;10.850;2023-05-28T00:19:58;23.80;56.40
44863;DHT22;30597;49.628;10.850;2023-05-28T00:22:24;23.80;56.60
44863;DHT22;30597;49.628;10.850;2023-05-28T00:24:50;23.70;56.80
44863;DHT22;30597;49.628;10.850;2023-05-28T00:27:16;23.70;56.50
44863;DHT22;30597;49.628;10.850;2023-05-28T00:29:41;23.70;56.70
44863;DHT22;30597;49.628;10.850;2023-05-28T00:32:08;23.70;56.70
44863;DHT22;30597;49.628;10.850;2023-05-28T00:34:34;23.70;56.60
44863;DHT22;30597;49.628;10.850;2023-05-28T00:37:00;23.70;57.00
44863;DHT22;30597;49.628;10.850;2023-05-28T00:39:25;23.70;57.10
44863;DHT22;30597;49.628;10.850;2023-05-28T00:42:00;23.70;57.10
44863;DHT22;30597;49.628;10.850;2023-05-28T00:44:27;23.70;57.10
44863;DHT22;30597;49.628;10.850;2023-05-28T00:46:53;23.70;57.00
44863;DHT22;30597;49.628;10.850;2023-05-28T00:49:19;23.70;57.00
44863;DHT22;30597;49.628;10.850;2023-05-28T00:51:44;23.70;56.90
44863;DHT22;30597;49.628;10.850;2023-05-28T00:54:10;23.70;57.00
44863;DHT22;30597;49.628;10.850;2023-05-28T00:56:36;23.70;57.00
44863;DHT22;30597;49.628;10.850;2023-05-28T00:59:02;23.60;56.90
44863;DHT22;30597;49.628;10.850;2023-05-28T01:01:29;23.70;56.90
44863;DHT22;30597;49.628;10.850;2023-05-28T01:03:55;23.60;57.00
44863;DHT22;30597;49.628;10.850;2023-05-28T01:06:21;23.70;57.00
44863;DHT22;30597;49.628;10.850;2023-05-28T01:08:48;23.70;57.00
44863;DHT22;30597;49.628;10.850;2023-05-28T01:11:16;23.70;57.00
44863;DHT22;30597;49.628;10.850;2023-05-28T01:13:43;23.60;57.00
44863;DHT22;30597;49.628;10.850;2023-05-28T01:16:09;23.70;57.10
44863;DHT22;30597;49.628;10.850;2023-05-28T01:18:36;23.60;56.90
44863;DHT22;30597;49.628;10.850;2023-05-28T01:21:11;23.60;57.00
44863;DHT22;30597;49.628;10.850;2023-05-28T01:23:41;23.60;57.00
44863;DHT22;30597;49.628;10.850;2023-05-28T01:26:10;23.60;57.00
44863;DHT22;30597;49.628;10.850;2023-05-28T01:28:37;23.60;57.00
44863;DHT22;30597;49.628;10.850;2023-05-28T01:31:06;23.60;56.80
44863;DHT22;30597;49.628;10.850;2023-05-28T01:33:33;23.60;56.90
44863;DHT22;30597;49.628;10.850;2023-05-28T01:36:00;23.60;56.90
44863;DHT22;30597;49.628;10.850;2023-05-28T01:38:27;23.60;57.10
44863;DHT22;30597;49.628;10.850;2023-05-28T01:40:53;23.60;57.10
44863;DHT22;30597;49.628;10.850;2023-05-28T01:43:20;23.60;57.10
44863;DHT22;30597;49.628;10.850;2023-05-28T01:45:47;23.60;57.10
44863;DHT22;30597;49.628;10.850;2023-05-28T01:48:13;23.60;57.20
44863;DHT22;30597;49.628;10.850;2023-05-28T01:50:39;23.50;57.00
44863;DHT22;30597;49.628;10.850;2023-05-28T01:53:04;23.50;57.30
44863;DHT22;30597;49.628;10.850;2023-05-28T01:55:30;23.50;57.30
44863;DHT22;30597;49.628;10.850;2023-05-28T01:57:55;23.50;57.20
44863;DHT22;30597;49.628;10.850;2023-05-28T02:00:21;23.50;57.10
44863;DHT22;30597;49.628;10.850;2023-05-28T02:02:48;23.50;57.20
44863;DHT22;30597;49.628;10.850;2023-05-28T02:05:14;23.50;57.20
44863;DHT22;30597;49.628;10.850;2023-05-28T02:07:39;23.50;57.10
44863;DHT22;30597;49.628;10.850;2023-05-28T02:10:05;23.40;57.10
44863;DHT22;30597;49.628;10.850;2023-05-28T02:12:32;23.50;57.30
44863;DHT22;30597;49.628;10.850;2023-05-28T02:14:58;23.40;57.30
44863;DHT22;30597;49.628;10.850;2023-05-28T02:17:23;23.40;57.30
44863;DHT22;30597;49.628;10.850;2023-05-28T02:19:49;23.40;57.40
44863;DHT22;30597;49.628;10.850;2023-05-28T02:22:15;23.40;57.40
44863;DHT22;30597;49.628;10.850;2023-05-28T02:24:41;23.40;57.40
44863;DHT22;30597;49.628;10.850;2023-05-28T02:27:07;23.50;57.40
44863;DHT22;30597;49.628;10.850;2023-05-28T02:29:33;23.40;57.40
44863;DHT22;30597;49.628;10.850;2023-05-28T02:32:00;23.40;57.30
44863;DHT22;30597;49.628;10.850;2023-05-28T02:34:26;23.40;57.50
44863;DHT22;30597;49.628;10.850;2023-05-28T02:36:53;23.30;57.30
44863;DHT22;30597;49.628;10.850;2023-05-28T02:39:19;23.40;57.70
44863;DHT22;30597;49.628;10.850;2023-05-28T02:41:45;23.40;57.50
44863;DHT22;30597;49.628;10.850;2023-05-28T02:44:10;23.30;57.40
44863;DHT22;30597;49.628;10.850;2023-05-28T02:46:36;23.40;58.20
44863;DHT22;30597;49.628;10.850;2023-05-28T02:49:01;23.30;57.50
44863;DHT22;30597;49.628;10.850;2023-05-28T02:51:27;23.30;57.60
44863;DHT22;30597;49.628;10.850;2023-05-28T02:53:52;23.30;57.70
44863;DHT22;30597;49.628;10.850;2023-05-28T02:56:18;23.30;57.70
44863;DHT22;30597;49.628;10.850;2023-05-28T02:58:43;23.40;57.80
44863;DHT22;30597;49.628;10.850;2023-05-28T03:01:09;23.30;57.60
44863;DHT22;30597;49.628;10.850;2023-05-28T03:03:35;23.40;57.70
44863;DHT22;30597;49.628;10.850;2023-05-28T03:06:00;23.40;57.70
44863;DHT22;30597;49.628;10.850;2023-05-28T03:08:27;23.40;58.30
44863;DHT22;30597;49.628;10.850;2023-05-28T03:10:52;23.30;57.60
44863;DHT22;30597;49.628;10.850;2023-05-28T03:13:18;23.40;57.70
44863;DHT22;30597;49.628;10.850;2023-05-28T03:15:43;23.40;57.60
44863;DHT22;30597;49.628;10.850;2023-05-28T03:18:09;23.30;57.60
44863;DHT22;30597;49.628;10.850;2023-05-28T03:20:34;23.30;57.50
44863;DHT22;30597;49.628;10.850;2023-05-28T03:23:00;23.30;57.50
44863;DHT22;30597;49.628;10.850;2023-05-28T03:25:26;23.30;57.50
44863;DHT22;30597;49.628;10.850;2023-05-28T03:27:52;23.30;57.50
44863;DHT22;30597;49.628;10.850;2023-05-28T03:30:18;23.30;57.60
44863;DHT22;30597;49.628;10.850;2023-05-28T03:32:44;23.30;57.70
44863;DHT22;30597;49.628;10.850;2023-05-28T03:35:10;23.30;57.70
44863;DHT22;30597;49.628;10.850;2023-05-28T03:37:35;23.30;57.70
44863;DHT22;30597;49.628;10.850;2023-05-28T03:40:01;23.20;57.60
44863;DHT22;30597;49.628;10.850;2023-05-28T03:42:27;23.30;57.80
44863;DHT22;30597;49.628;10.850;2023-05-28T03:44:53;23.30;57.80
44863;DHT22;30597;49.628;10.850;2023-05-28T03:47:18;23.20;57.80
44863;DHT22;30597;49.628;10.850;2023-05-28T03:49:44;23.20;57.70
44863;DHT22;30597;49.628;10.850;2023-05-28T03:52:09;23.20;57.60
44863;DHT22;30597;49.628;10.850;2023-05-28T03:54:36;23.20;57.70
44863;DHT22;30597;49.628;10.850;2023-05-28T03:57:01;23.20;57.80
44863;DHT22;30597;49.628;10.850;2023-05-28T03:59:27;23.20;57.70
44863;DHT22;30597;49.628;10.850;2023-05-28T04:01:52;23.10;57.70
44863;DHT22;30597;49.628;10.850;2023-05-28T04:04:18;23.10;57.70
44863;DHT22;30597;49.628;10.850;2023-05-28T04:06:44;23.20;57.70
44863;DHT22;30597;49.628;10.850;2023-05-28T04:09:09;23.10;57.60
44863;DHT22;30597;49.628;10.850;2023-05-28T04:11:35;23.10;57.70
44863;DHT22;30597;49.628;10.850;2023-05-28T04:14:03;23.10;57.80
44863;DHT22;30597;49.628;10.850;2023-05-28T04:16:28;23.10;57.80
44863;DHT22;30597;49.628;10.850;2023-05-28T04:18:54;23.10;57.70
44863;DHT22;30597;49.628;10.850;2023-05-28T04:21:20;23.10;57.80
44863;DHT22;30597;49.628;10.850;2023-05-28T04:23:47;23.10;57.90
44863;DHT22;30597;49.628;10.850;2023-05-28T04:26:13;23.10;57.80
44863;DHT22;30597;49.628;10.850;2023-05-28T04:28:40;23.10;57.70
44863;DHT22;30597;49.628;10.850;2023-05-28T04:31:06;23.10;57.90
44863;DHT22;30597;49.628;10.850;2023-05-28T04:33:32;23.10;57.90
44863;DHT22;30597;49.628;10.850;2023-05-28T04:35:59;23.10;57.70
44863;DHT22;30597;49.628;10.850;2023-05-28T04:38:25;23.30;58.00
44863;DHT22;30597;49.628;10.850;2023-05-28T04:40:50;23.10;57.80
44863;DHT22;30597;49.628;10.850;2023-05-28T04:43:16;23.10;57.80
44863;DHT22;30597;49.628;10.850;2023-05-28T04:45:43;23.10;57.70
44863;DHT22;30597;49.628;10.850;2023-05-28T04:48:09;23.20;57.80
44863;DHT22;30597;49.628;10.850;2023-05-28T04:50:36;23.20;57.80
44863;DHT22;30597;49.628;10.850;2023-05-28T04:53:01;23.20;57.70
44863;DHT22;30597;49.628;10.850;2023-05-28T04:55:27;23.10;57.60
44863;DHT22;30597;49.628;10.850;2023-05-28T04:57:53;23.10;57.60
44863;DHT22;30597;49.628;10.850;2023-05-28T05:00:19;23.10;57.70
44863;DHT22;30597;49.628;10.850;2023-05-28T05:02:45;23.20;57.80
44863;DHT22;30597;49.628;10.850;2023-05-28T05:05:11;23.20;58.10
44863;DHT22;30597;49.628;10.850;2023-05-28T05:07:38;23.30;58.20
44863;DHT22;30597;49.628;10.850;2023-05-28T05:10:08;23.30;58.10
44863;DHT22;30597;49.628;10.850;2023-05-28T05:12:34;23.30;58.00
44863;DHT22;30597;49.628;10.850;2023-05-28T05:15:00;23.30;57.90
44863;DHT22;30597;49.628;10.850;2023-05-28T05:17:26;23.30;57.70
44863;DHT22;30597;49.628;10.850;2023-05-28T05:19:52;23.30;57.70
44863;DHT22;30597;49.628;10.850;2023-05-28T05:22:20;23.40;57.70
44863;DHT22;30597;49.628;10.850;2023-05-28T05:24:46;23.40;57.80
44863;DHT22;30597;49.628;10.850;2023-05-28T05:27:13;23.40;57.90
44863;DHT22;30597;49.628;10.850;2023-05-28T05:29:39;23.40;57.80
44863;DHT22;30597;49.628;10.850;2023-05-28T05:32:05;23.40;57.80
44863;DHT22;30597;49.628;10.850;2023-05-28T05:34:31;23.40;57.70
44863;DHT22;30597;49.628;10.850;2023-05-28T05:36:57;23.50;57.80
44863;DHT22;30597;49.628;10.850;2023-05-28T05:39:24;23.40;57.60
44863;DHT22;30597;49.628;10.850;2023-05-28T05:41:50;23.50;57.60
44863;DHT22;30597;49.628;10.850;2023-05-28T05:44:15;23.40;57.60
44863;DHT22;30597;49.628;10.850;2023-05-28T05:46:41;23.50;57.60
44863;DHT22;30597;49.628;10.850;2023-05-28T05:49:07;23.50;57.50
44863;DHT22;30597;49.628;10.850;2023-05-28T05:51:33;23.50;57.60
44863;DHT22;30597;49.628;10.850;2023-05-28T05:53:59;23.50;57.40
44863;DHT22;30597;49.628;10.850;2023-05-28T05:56:24;23.50;57.30
44863;DHT22;30597;49.628;10.850;2023-05-28T05:58:51;23.60;57.30
44863;DHT22;30597;49.628;10.850;2023-05-28T06:01:17;23.70;57.50
44863;DHT22;30597;49.628;10.850;2023-05-28T06:03:42;23.60;57.30
44863;DHT22;30597;49.628;10.850;2023-05-28T06:06:08;23.60;57.30
44863;DHT22;30597;49.628;10.850;2023-05-28T06:08:35;23.50;57.50
44863;DHT22;30597;49.628;10.850;2023-05-28T06:11:01;23.60;57.60
44863;DHT22;30597;49.628;10.850;2023-05-28T06:13:30;23.60;57.20
44863;DHT22;30597;49.628;10.850;2023-05-28T06:15:57;23.60;57.10
44863;DHT22;30597;49.628;10.850;2023-05-28T06:18:22;23.50;56.80
44863;DHT22;30597;49.628;10.850;2023-05-28T06:20:49;23.50;55.50
44863;DHT22;30597;49.628;10.850;2023-05-28T06:23:15;23.50;55.70
44863;DHT22;30597;49.628;10.850;2023-05-28T06:25:41;23.50;55.80
44863;DHT22;30597;49.628;10.850;2023-05-28T06:28:09;23.50;55.70
44863;DHT22;30597;49.628;10.850;2023-05-28T06:30:35;23.60;56.00
44863;DHT22;30597;49.628;10.850;2023-05-28T06:33:03;23.60;56.00
44863;DHT22;30597;49.628;10.850;2023-05-28T06:35:28;23.70;56.00
44863;DHT22;30597;49.628;10.850;2023-05-28T06:37:54;23.80;56.10
44863;DHT22;30597;49.628;10.850;2023-05-28T06:40:20;23.70;56.10
44863;DHT22;30597;49.628;10.850;2023-05-28T06:42:45;23.70;56.00
44863;DHT22;30597;49.628;10.850;2023-05-28T06:45:11;23.80;56.00
44863;DHT22;30597;49.628;10.850;2023-05-28T06:47:37;23.90;56.70
44863;DHT22;30597;49.628;10.850;2023-05-28T06:50:06;23.90;55.90
44863;DHT22;30597;49.628;10.850;2023-05-28T06:52:31;23.90;55.70
44863;DHT22;30597;49.628;10.850;2023-05-28T06:54:57;23.90;56.00
44863;DHT22;30597;49.628;10.850;2023-05-28T06:57:23;23.90;56.10
44863;DHT22;30597;49.628;10.850;2023-05-28T06:59:49;24.00;55.80
44863;DHT22;30597;49.628;10.850;2023-05-28T07:02:14;24.00;55.90
44863;DHT22;30597;49.628;10.850;2023-05-28T07:04:40;24.00;56.00
44863;DHT22;30597;49.628;10.850;2023-05-28T07:07:06;24.00;55.90
44863;DHT22;30597;49.628;10.850;2023-05-28T07:09:35;24.00;55.60
44863;DHT22;30597;49.628;10.850;2023-05-28T07:12:01;24.10;55.70
44863;DHT22;30597;49.628;10.850;2023-05-28T07:14:27;24.00;55.30
44863;DHT22;30597;49.628;10.850;2023-05-28T07:16:52;24.00;55.50
44863;DHT22;30597;49.628;10.850;2023-05-28T07:19:18;24.20;55.60
44863;DHT22;30597;49.628;10.850;2023-05-28T07:21:46;24.20;55.30
44863;DHT22;30597;49.628;10.850;2023-05-28T07:24:11;24.10;55.60
44863;DHT22;30597;49.628;10.850;2023-05-28T07:26:37;24.30;55.70
44863;DHT22;30597;49.628;10.850;2023-05-28T07:29:02;24.30;55.30
44863;DHT22;30597;49.628;10.850;2023-05-28T07:31:28;24.20;55.70
44863;DHT22;30597;49.628;10.850;2023-05-28T07:33:55;24.30;55.80
44863;DHT22;30597;49.628;10.850;2023-05-28T07:36:20;24.20;55.70
44863;DHT22;30597;49.628;10.850;2023-05-28T07:38:46;24.20;55.50
44863;DHT22;30597;49.628;10.850;2023-05-28T07:41:12;24.20;55.60
44863;DHT22;30597;49.628;10.850;2023-05-28T07:43:37;24.30;55.70
44863;DHT22;30597;49.628;10.850;2023-05-28T07:46:03;24.20;55.70
44863;DHT22;30597;49.628;10.850;2023-05-28T07:48:28;24.30;55.70
44863;DHT22;30597;49.628;10.850;2023-05-28T07:50:54;24.30;55.70
44863;DHT22;30597;49.628;10.850;2023-05-28T07:53:19;24.30;55.70
44863;DHT22;30597;49.628;10.850;2023-05-28T07:55:45;24.30;55.60
44863;DHT22;30597;49.628;10.850;2023-05-28T07:58:11;24.30;55.40
44863;DHT22;30597;49.628;10.850;2023-05-28T08:00:38;24.30;55.50
44863;DHT22;30597;49.628;10.850;2023-05-28T08:03:05;24.30;55.70
44863;DHT22;30597;49.628;10.850;2023-05-28T08:05:31;24.30;55.50
44863;DHT22;30597;49.628;10.850;2023-05-28T08:07:57;24.40;55.40
44863;DHT22;30597;49.628;10.850;2023-05-28T08:10:22;24.30;55.20
44863;DHT22;30597;49.628;10.850;2023-05-28T08:12:48;24.40;55.30
44863;DHT22;30597;49.628;10.850;2023-05-28T08:15:14;24.30;55.20
44863;DHT22;30597;49.628;10.850;2023-05-28T08:17:40;24.30;55.10
44863;DHT22;30597;49.628;10.850;2023-05-28T08:20:07;24.30;55.00
44863;DHT22;30597;49.628;10.850;2023-05-28T08:22:35;24.30;55.00
44863;DHT22;30597;49.628;10.850;2023-05-28T08:25:00;24.30;54.90
44863;DHT22;30597;49.628;10.850;2023-05-28T08:27:26;24.30;54.90
44863;DHT22;30597;49.628;10.850;2023-05-28T08:29:52;24.30;54.80
44863;DHT22;30597;49.628;10.850;2023-05-28T08:32:17;24.30;54.70
44863;DHT22;30597;49.628;10.850;2023-05-28T08:34:43;24.30;54.70
44863;DHT22;30597;49.628;10.850;2023-05-28T08:37:09;24.30;54.60
44863;DHT22;30597;49.628;10.850;2023-05-28T08:39:35;24.30;54.50
44863;DHT22;30597;49.628;10.850;2023-05-28T08:42:01;24.30;54.50
44863;DHT22;30597;49.628;10.850;2023-05-28T08:44:27;24.30;54.40
44863;DHT22;30597;49.628;10.850;2023-05-28T08:46:53;24.30;54.30
44863;DHT22;30597;49.628;10.850;2023-05-28T08:49:20;24.30;54.40
44863;DHT22;30597;49.628;10.850;2023-05-28T08:51:52;24.30;54.30
44863;DHT22;30597;49.628;10.850;2023-05-28T08:54:19;24.30;54.10
44863;DHT22;30597;49.628;10.850;2023-05-28T08:56:45;24.30;53.50
44863;DHT22;30597;49.628;10.850;2023-05-28T08:59:11;24.30;53.60
44863;DHT22;30597;49.628;10.850;2023-05-28T09:01:38;24.40;53.40
44863;DHT22;30597;49.628;10.850;2023-05-28T09:04:06;24.30;53.80
44863;DHT22;30597;49.628;10.850;2023-05-28T09:06:32;24.30;53.00
44863;DHT22;30597;49.628;10.850;2023-05-28T09:08:58;24.30;52.50
44863;DHT22;30597;49.628;10.850;2023-05-28T09:11:23;24.30;52.90
44863;DHT22;30597;49.628;10.850;2023-05-28T09:13:49;24.30;52.90
44863;DHT22;30597;49.628;10.850;2023-05-28T09:16:20;24.30;52.90
44863;DHT22;30597;49.628;10.850;2023-05-28T09:18:49;24.30;53.00
44863;DHT22;30597;49.628;10.850;2023-05-28T09:21:15;24.30;53.00
44863;DHT22;30597;49.628;10.850;2023-05-28T09:23:43;24.40;52.80
44863;DHT22;30597;49.628;10.850;2023-05-28T09:26:11;24.30;52.90
44863;DHT22;30597;49.628;10.850;2023-05-28T09:28:41;24.30;51.70
44863;DHT22;30597;49.628;10.850;2023-05-28T09:31:08;24.30;52.80
44863;DHT22;30597;49.628;10.850;2023-05-28T09:33:33;24.30;52.40
44863;DHT22;30597;49.628;10.850;2023-05-28T09:36:00;24.30;52.50
44863;DHT22;30597;49.628;10.850;2023-05-28T09:38:27;24.30;52.80
44863;DHT22;30597;49.628;10.850;2023-05-28T09:41:02;24.30;52.80
44863;DHT22;30597;49.628;10.850;2023-05-28T09:43:28;24.30;52.60
44863;DHT22;30597;49.628;10.850;2023-05-28T09:46:07;24.30;52.40
44863;DHT22;30597;49.628;10.850;2023-05-28T09:48:33;24.30;52.50
44863;DHT22;30597;49.628;10.850;2023-05-28T09:51:00;24.30;52.40
44863;DHT22;30597;49.628;10.850;2023-05-28T09:53:29;24.30;52.50
44863;DHT22;30597;49.628;10.850;2023-05-28T09:55:59;24.40;52.40
44863;DHT22;30597;49.628;10.850;2023-05-28T09:58:30;24.30;52.30
44863;DHT22;30597;49.628;10.850;2023-05-28T10:00:57;24.30;52.10
44863;DHT22;30597;49.628;10.850;2023-05-28T10:03:37;24.30;52.10
44863;DHT22;30597;49.628;10.850;2023-05-28T10:06:06;24.30;51.90
44863;DHT22;30597;49.628;10.850;2023-05-28T10:08:37;24.30;51.70
44863;DHT22;30597;49.628;10.850;2023-05-28T10:11:07;24.30;51.50
44863;DHT22;30597;49.628;10.850;2023-05-28T10:13:34;24.30;51.80
44863;DHT22;30597;49.628;10.850;2023-05-28T10:16:00;24.30;51.60
44863;DHT22;30597;49.628;10.850;2023-05-28T10:18:27;24.30;51.60
44863;DHT22;30597;49.628;10.850;2023-05-28T10:20:53;24.30;51.70
44863;DHT22;30597;49.628;10.850;2023-05-28T10:23:20;24.30;51.70
44863;DHT22;30597;49.628;10.850;2023-05-28T10:25:46;24.30;51.70
44863;DHT22;30597;49.628;10.850;2023-05-28T10:28:16;24.30;51.20
44863;DHT22;30597;49.628;10.850;2023-05-28T10:30:42;24.30;51.50
44863;DHT22;30597;49.628;10.850;2023-05-28T10:33:11;24.30;51.20
44863;DHT22;30597;49.628;10.850;2023-05-28T10:35:51;24.30;51.50
44863;DHT22;30597;49.628;10.850;2023-05-28T10:38:17;24.30;51.30
44863;DHT22;30597;49.628;10.850;2023-05-28T10:40:43;24.30;51.10
44863;DHT22;30597;49.628;10.850;2023-05-28T10:46:03;24.30;51.40
44863;DHT22;30597;49.628;10.850;2023-05-28T10:48:31;24.30;51.30
44863;DHT22;30597;49.628;10.850;2023-05-28T10:50:58;24.30;50.90
44863;DHT22;30597;49.628;10.850;2023-05-28T10:53:26;24.30;51.20
44863;DHT22;30597;49.628;10.850;2023-05-28T10:55:56;24.30;51.20
44863;DHT22;30597;49.628;10.850;2023-05-28T11:00:51;24.30;51.20
44863;DHT22;30597;49.628;10.850;2023-05-28T11:03:17;24.30;51.30
44863;DHT22;30597;49.628;10.850;2023-05-28T11:05:44;24.30;51.20
44863;DHT22;30597;49.628;10.850;2023-05-28T11:08:10;24.40;50.90
44863;DHT22;30597;49.628;10.850;2023-05-28T11:10:36;24.30;50.60
44863;DHT22;30597;49.628;10.850;2023-05-28T11:13:02;24.30;50.90
44863;DHT22;30597;49.628;10.850;2023-05-28T11:15:28;24.30;50.90
44863;DHT22;30597;49.628;10.850;2023-05-28T11:17:55;24.30;51.00
44863;DHT22;30597;49.628;10.850;2023-05-28T11:20:23;24.30;50.90
44863;DHT22;30597;49.628;10.850;2023-05-28T11:22:52;24.30;50.90
44863;DHT22;30597;49.628;10.850;2023-05-28T11:25:19;24.20;51.00
44863;DHT22;30597;49.628;10.850;2023-05-28T11:27:50;24.30;51.10
44863;DHT22;30597;49.628;10.850;2023-05-28T11:30:33;24.20;50.90
44863;DHT22;30597;49.628;10.850;2023-05-28T11:33:04;24.30;50.30
44863;DHT22;30597;49.628;10.850;2023-05-28T11:35:35;24.30;49.80
44863;DHT22;30597;49.628;10.850;2023-05-28T11:38:04;24.30;49.80
44863;DHT22;30597;49.628;10.850;2023-05-28T11:40:34;24.40;50.20
44863;DHT22;30597;49.628;10.850;2023-05-28T11:43:00;24.30;48.80
44863;DHT22;30597;49.628;10.850;2023-05-28T11:45:26;24.30;49.70
44863;DHT22;30597;49.628;10.850;2023-05-28T11:47:51;24.30;49.90
44863;DHT22;30597;49.628;10.850;2023-05-28T11:50:19;24.30;49.50
44863;DHT22;30597;49.628;10.850;2023-05-28T11:52:46;24.30;50.10
44863;DHT22;30597;49.628;10.850;2023-05-28T11:55:13;24.30;49.70
44863;DHT22;30597;49.628;10.850;2023-05-28T11:57:50;24.30;50.50
44863;DHT22;30597;49.628;10.850;2023-05-28T12:00:33;24.30;50.70
44863;DHT22;30597;49.628;10.850;2023-05-28T12:03:00;24.10;50.00
44863;DHT22;30597;49.628;10.850;2023-05-28T12:05:26;24.30;50.10
44863;DHT22;30597;49.628;10.850;2023-05-28T12:07:54;24.30;50.50
44863;DHT22;30597;49.628;10.850;2023-05-28T12:10:21;24.30;51.10
44863;DHT22;30597;49.628;10.850;2023-05-28T12:12:48;24.50;51.40
44863;DHT22;30597;49.628;10.850;2023-05-28T12:15:15;24.40;51.40
44863;DHT22;30597;49.628;10.850;2023-05-28T12:17:43;24.40;51.50
44863;DHT22;30597;49.628;10.850;2023-05-28T12:22:41;24.50;51.80
44863;DHT22;30597;49.628;10.850;2023-05-28T12:25:07;24.50;51.90
44863;DHT22;30597;49.628;10.850;2023-05-28T12:27:34;24.60;51.80
44863;DHT22;30597;49.628;10.850;2023-05-28T12:29:59;24.50;51.80
44863;DHT22;30597;49.628;10.850;2023-05-28T12:32:25;24.60;51.90
44863;DHT22;30597;49.628;10.850;2023-05-28T12:34:52;24.60;52.10
44863;DHT22;30597;49.628;10.850;2023-05-28T12:37:20;24.60;52.10
44863;DHT22;30597;49.628;10.850;2023-05-28T12:39:46;24.60;52.80
44863;DHT22;30597;49.628;10.850;2023-05-28T12:42:12;24.60;52.20
44863;DHT22;30597;49.628;10.850;2023-05-28T12:44:37;24.70;52.30
44863;DHT22;30597;49.628;10.850;2023-05-28T12:47:03;24.70;52.30
44863;DHT22;30597;49.628;10.850;2023-05-28T12:49:29;24.70;52.50
44863;DHT22;30597;49.628;10.850;2023-05-28T12:51:55;24.80;52.60
44863;DHT22;30597;49.628;10.850;2023-05-28T12:54:21;24.70;52.30
44863;DHT22;30597;49.628;10.850;2023-05-28T12:56:47;24.70;52.50
44863;DHT22;30597;49.628;10.850;2023-05-28T12:59:23;24.80;52.50
44863;DHT22;30597;49.628;10.850;2023-05-28T13:01:49;24.80;52.50
44863;DHT22;30597;49.628;10.850;2023-05-28T13:04:15;24.80;52.50
44863;DHT22;30597;49.628;10.850;2023-05-28T13:06:41;24.90;51.30
44863;DHT22;30597;49.628;10.850;2023-05-28T13:09:08;24.90;51.00
44863;DHT22;30597;49.628;10.850;2023-05-28T13:11:35;24.90;51.30
44863;DHT22;30597;49.628;10.850;2023-05-28T13:14:01;24.90;51.40
44863;DHT22;30597;49.628;10.850;2023-05-28T13:16:27;24.80;51.30
44863;DHT22;30597;49.628;10.850;2023-05-28T13:18:52;24.90;51.30
44863;DHT22;30597;49.628;10.850;2023-05-28T13:21:21;24.90;51.30
44863;DHT22;30597;49.628;10.850;2023-05-28T13:23:47;24.90;51.10
44863;DHT22;30597;49.628;10.850;2023-05-28T13:26:14;24.90;51.10
44863;DHT22;30597;49.628;10.850;2023-05-28T13:28:39;24.90;51.30
44863;DHT22;30597;49.628;10.850;2023-05-28T13:31:05;24.90;50.80
44863;DHT22;30597;49.628;10.850;2023-05-28T13:33:31;24.90;51.00
44863;DHT22;30597;49.628;10.850;2023-05-28T13:35:56;24.90;50.80
44863;DHT22;30597;49.628;10.850;2023-05-28T13:38:22;24.90;50.90
44863;DHT22;30597;49.628;10.850;2023-05-28T13:40:48;25.00;50.90
44863;DHT22;30597;49.628;10.850;2023-05-28T13:43:13;24.90;51.20
44863;DHT22;30597;49.628;10.850;2023-05-28T13:45:40;25.00;51.20
44863;DHT22;30597;49.628;10.850;2023-05-28T13:48:06;25.00;51.20
44863;DHT22;30597;49.628;10.850;2023-05-28T13:50:33;25.00;51.40
44863;DHT22;30597;49.628;10.850;2023-05-28T13:52:58;25.00;51.60
44863;DHT22;30597;49.628;10.850;2023-05-28T13:55:24;25.10;51.50
44863;DHT22;30597;49.628;10.850;2023-05-28T13:57:51;25.10;51.70
44863;DHT22;30597;49.628;10.850;2023-05-28T14:00:16;25.20;51.40
44863;DHT22;30597;49.628;10.850;2023-05-28T14:02:42;25.10;50.80
44863;DHT22;30597;49.628;10.850;2023-05-28T14:05:08;25.20;51.10
44863;DHT22;30597;49.628;10.850;2023-05-28T14:07:34;25.20;51.40
44863;DHT22;30597;49.628;10.850;2023-05-28T14:10:03;25.20;51.40
44863;DHT22;30597;49.628;10.850;2023-05-28T14:12:30;25.20;51.70
44863;DHT22;30597;49.628;10.850;2023-05-28T14:14:56;25.20;51.70
44863;DHT22;30597;49.628;10.850;2023-05-28T14:17:21;25.20;51.30
44863;DHT22;30597;49.628;10.850;2023-05-28T14:19:47;25.20;50.70
44863;DHT22;30597;49.628;10.850;2023-05-28T14:22:13;25.20;51.50
44863;DHT22;30597;49.628;10.850;2023-05-28T14:24:40;25.20;50.20
44863;DHT22;30597;49.628;10.850;2023-05-28T14:27:12;25.20;51.10
44863;DHT22;30597;49.628;10.850;2023-05-28T14:29:45;25.10;50.80
44863;DHT22;30597;49.628;10.850;2023-05-28T14:32:11;25.00;51.00
44863;DHT22;30597;49.628;10.850;2023-05-28T14:35:06;25.20;50.10
44863;DHT22;30597;49.628;10.850;2023-05-28T14:37:47;25.10;49.70
44863;DHT22;30597;49.628;10.850;2023-05-28T14:40:18;25.20;48.40
44863;DHT22;30597;49.628;10.850;2023-05-28T14:42:50;25.10;48.70
44863;DHT22;30597;49.628;10.850;2023-05-28T14:45:16;25.10;48.70
44863;DHT22;30597;49.628;10.850;2023-05-28T14:47:47;25.00;49.10
44863;DHT22;30597;49.628;10.850;2023-05-28T14:50:17;25.00;49.40
44863;DHT22;30597;49.628;10.850;2023-05-28T14:52:49;25.10;49.20
44863;DHT22;30597;49.628;10.850;2023-05-28T14:55:17;25.10;48.40
44863;DHT22;30597;49.628;10.850;2023-05-28T14:57:42;25.00;48.00
44863;DHT22;30597;49.628;10.850;2023-05-28T15:00:08;25.10;49.20
44863;DHT22;30597;49.628;10.850;2023-05-28T15:02:38;25.00;49.00
44863;DHT22;30597;49.628;10.850;2023-05-28T15:05:07;25.00;48.40
44863;DHT22;30597;49.628;10.850;2023-05-28T15:07:33;25.00;49.30
44863;DHT22;30597;49.628;10.850;2023-05-28T15:09:59;24.90;48.90
44863;DHT22;30597;49.628;10.850;2023-05-28T15:12:25;25.00;48.90
44863;DHT22;30597;49.628;10.850;2023-05-28T15:14:51;25.10;49.20
44863;DHT22;30597;49.628;10.850;2023-05-28T15:17:17;25.00;48.60
44863;DHT22;30597;49.628;10.850;2023-05-28T15:19:43;25.10;49.10